createdAt,value
2023-04-09T00:01:09.402Z,10.02
2023-04-09T00:03:37.108Z,10.10
2023-04-09T00:06:05.188Z,10.60
2023-04-09T00:08:31.906Z,12.20
2023-04-09T00:10:59.155Z,12.70
2023-04-09T00:13:38.655Z,11.52
2023-04-09T00:16:07.274Z,12.68
2023-04-09T00:18:34.131Z,11.90
2023-04-09T00:21:00.932Z,10.57
2023-04-09T00:23:27.778Z,12.45
2023-04-09T00:25:54.584Z,11.07
2023-04-09T00:28:21.577Z,11.18
2023-04-09T00:30:48.426Z,10.45
2023-04-09T00:33:15.637Z,10.90
2023-04-09T00:35:42.337Z,14.20
2023-04-09T00:38:09.089Z,10.73
2023-04-09T00:40:35.978Z,12.65
2023-04-09T00:43:02.870Z,10.85
2023-04-09T00:45:29.699Z,12.45
2023-04-09T00:47:56.752Z,11.30
2023-04-09T00:50:23.577Z,11.77
2023-04-09T00:52:50.312Z,10.02
2023-04-09T00:55:18.193Z,12.52
2023-04-09T00:57:44.928Z,12.93
2023-04-09T01:00:13.085Z,12.02
2023-04-09T01:02:40.851Z,12.93
2023-04-09T01:05:08.381Z,13.68
2023-04-09T01:07:59.562Z,12.85
2023-04-09T01:10:36.387Z,13.23
2023-04-09T01:13:19.825Z,12.32
2023-04-09T01:15:57.111Z,13.07
2023-04-09T01:18:32.084Z,13.13
2023-04-09T01:21:19.144Z,15.38
2023-04-09T01:23:46.496Z,12.68
2023-04-09T01:26:41.233Z,12.95
2023-04-09T01:29:09.048Z,12.77
2023-04-09T01:31:38.281Z,11.73
2023-04-09T01:34:08.745Z,12.25
2023-04-09T01:36:37.856Z,13.00
2023-04-09T01:39:06.204Z,12.95
2023-04-09T01:41:35.290Z,13.98
2023-04-09T01:44:03.918Z,14.13
2023-04-09T01:46:31.916Z,14.00
2023-04-09T01:48:59.316Z,13.38
2023-04-09T01:51:27.327Z,13.70
2023-04-09T01:53:54.344Z,12.85
2023-04-09T01:56:21.410Z,12.77
2023-04-09T01:58:48.142Z,13.05
2023-04-09T02:01:33.133Z,11.35
2023-04-09T02:04:07.522Z,14.00
2023-04-09T02:06:37.254Z,12.27
2023-04-09T02:09:08.893Z,13.38
2023-04-09T02:11:40.697Z,13.23
2023-04-09T02:14:09.105Z,12.88
2023-04-09T02:16:36.946Z,14.60
2023-04-09T02:19:03.712Z,13.27
2023-04-09T02:21:31.733Z,13.80
2023-04-09T02:23:58.556Z,13.63
2023-04-09T02:26:25.404Z,13.88
2023-04-09T02:28:52.316Z,14.55
2023-04-09T02:31:19.269Z,13.20
2023-04-09T02:33:46.056Z,12.25
2023-04-09T02:36:13.311Z,14.10
2023-04-09T02:38:43.373Z,11.80
2023-04-09T02:41:10.513Z,11.43
2023-04-09T02:43:37.726Z,13.40
2023-04-09T02:46:04.753Z,11.65
2023-04-09T02:48:31.602Z,12.25
2023-04-09T02:50:58.489Z,13.10
2023-04-09T02:53:25.918Z,13.65
2023-04-09T02:55:52.701Z,14.35
2023-04-09T02:58:19.429Z,12.30
2023-04-09T03:00:46.172Z,10.95
2023-04-09T03:03:13.152Z,13.13
2023-04-09T03:05:40.007Z,16.17
2023-04-09T03:08:06.835Z,13.00
2023-04-09T03:10:33.633Z,13.82
2023-04-09T03:13:00.466Z,12.48
2023-04-09T03:15:27.221Z,14.18
2023-04-09T03:17:54.024Z,16.73
2023-04-09T03:20:20.844Z,15.48
2023-04-09T03:22:47.546Z,14.82
2023-04-09T03:25:14.301Z,14.73
2023-04-09T03:27:41.044Z,14.48
2023-04-09T03:30:08.322Z,13.57
2023-04-09T03:32:35.155Z,12.95
2023-04-09T03:35:01.871Z,13.98
2023-04-09T03:37:28.548Z,15.27
2023-04-09T03:39:55.251Z,13.68
2023-04-09T03:42:21.976Z,12.73
2023-04-09T03:44:48.734Z,16.13
2023-04-09T03:47:15.541Z,14.30
2023-04-09T03:49:42.334Z,13.30
2023-04-09T03:52:09.106Z,14.65
2023-04-09T03:54:35.837Z,14.98
2023-04-09T03:57:04.453Z,14.25
2023-04-09T03:59:31.156Z,15.88
2023-04-09T04:01:57.897Z,11.68
2023-04-09T04:04:24.742Z,13.95
2023-04-09T04:06:51.683Z,14.30
2023-04-09T04:09:18.483Z,13.82
2023-04-09T04:11:45.308Z,13.00
2023-04-09T04:14:12.057Z,13.98
2023-04-09T04:16:41.098Z,17.08
2023-04-09T04:19:07.996Z,15.55
2023-04-09T04:21:34.729Z,15.80
2023-04-09T04:24:01.440Z,15.93
2023-04-09T04:26:28.142Z,14.57
2023-04-09T04:28:54.998Z,15.55
2023-04-09T04:31:21.748Z,14.23
2023-04-09T04:33:48.506Z,14.88
2023-04-09T04:36:15.569Z,17.35
2023-04-09T04:38:42.699Z,16.02
2023-04-09T04:41:11.322Z,19.92
2023-04-09T04:43:38.212Z,18.55
2023-04-09T04:46:06.232Z,19.38
2023-04-09T04:48:33.144Z,20.50
2023-04-09T04:51:01.848Z,16.15
2023-04-09T04:53:28.655Z,16.27
2023-04-09T04:55:55.431Z,18.35
2023-04-09T04:58:22.240Z,19.15
2023-04-09T05:00:49.117Z,18.75
2023-04-09T05:03:16.352Z,20.42
2023-04-09T05:05:43.329Z,22.85
2023-04-09T05:08:10.422Z,22.38
2023-04-09T05:10:37.322Z,20.20
2023-04-09T05:13:04.178Z,20.13
2023-04-09T05:15:31.000Z,20.95
2023-04-09T05:17:58.192Z,19.55
2023-04-09T05:20:27.196Z,19.35
2023-04-09T05:22:53.957Z,18.42
2023-04-09T05:25:20.711Z,22.30
2023-04-09T05:27:47.456Z,22.30
2023-04-09T05:30:14.143Z,22.20
2023-04-09T05:32:41.248Z,20.13
2023-04-09T05:35:08.352Z,25.15
2023-04-09T05:37:35.827Z,26.73
2023-04-09T05:40:02.736Z,25.10
2023-04-09T05:42:29.476Z,24.90
2023-04-09T05:44:56.194Z,20.80
2023-04-09T05:47:23.035Z,18.40
2023-04-09T05:49:49.917Z,16.08
2023-04-09T05:52:17.169Z,16.92
2023-04-09T05:54:43.886Z,12.82
2023-04-09T05:57:10.652Z,12.05
2023-04-09T05:59:37.349Z,11.45
2023-04-09T06:02:04.122Z,13.45
2023-04-09T06:04:31.752Z,9.63
2023-04-09T06:07:00.250Z,10.10
2023-04-09T06:09:27.907Z,11.45
2023-04-09T06:11:54.683Z,9.77
2023-04-09T06:14:21.496Z,10.10
2023-04-09T06:16:48.393Z,9.98
2023-04-09T06:19:16.663Z,11.73
2023-04-09T06:21:43.471Z,10.50
2023-04-09T06:24:10.262Z,10.85
2023-04-09T06:26:37.041Z,9.82
2023-04-09T06:29:04.869Z,9.88
2023-04-09T06:31:31.793Z,10.88
2023-04-09T06:33:58.654Z,9.98
2023-04-09T06:36:27.241Z,11.27
2023-04-09T06:38:54.445Z,10.15
2023-04-09T06:41:24.938Z,9.95
2023-04-09T06:43:51.812Z,10.30
2023-04-09T06:46:20.393Z,9.85
2023-04-09T06:48:47.699Z,9.35
2023-04-09T06:51:15.022Z,9.27
2023-04-09T06:53:42.260Z,9.60
2023-04-09T06:56:09.185Z,9.43
2023-04-09T06:58:36.229Z,7.43
2023-04-09T07:01:03.115Z,8.10
2023-04-09T07:03:30.301Z,7.55
2023-04-09T07:05:57.682Z,7.18
2023-04-09T07:08:24.583Z,7.57
2023-04-09T07:10:51.345Z,7.20
2023-04-09T07:13:18.076Z,7.30
2023-04-09T07:15:44.850Z,7.43
2023-04-09T07:18:11.700Z,8.00
2023-04-09T07:20:38.487Z,8.35
2023-04-09T07:23:05.260Z,8.07
2023-04-09T07:25:32.443Z,7.90
2023-04-09T07:27:59.242Z,8.05
2023-04-09T07:30:26.411Z,7.47
2023-04-09T07:32:53.342Z,7.50
2023-04-09T07:35:20.387Z,8.05
2023-04-09T07:37:47.213Z,7.15
2023-04-09T07:40:13.972Z,7.22
2023-04-09T07:42:40.800Z,7.18
2023-04-09T07:45:08.015Z,7.55
2023-04-09T07:47:34.883Z,7.45
2023-04-09T07:50:01.618Z,7.38
2023-04-09T07:52:28.327Z,6.57
2023-04-09T07:54:55.034Z,6.82
2023-04-09T07:57:22.105Z,7.25
2023-04-09T07:59:48.954Z,7.40
2023-04-09T08:02:16.000Z,7.25
2023-04-09T08:04:42.968Z,6.35
2023-04-09T08:07:09.857Z,7.22
2023-04-09T08:09:36.603Z,7.15
2023-04-09T08:12:03.444Z,7.35
2023-04-09T08:14:30.429Z,7.22
2023-04-09T08:16:57.188Z,7.18
2023-04-09T08:19:24.713Z,7.35
2023-04-09T08:21:52.448Z,7.35
2023-04-09T08:24:19.467Z,7.43
2023-04-09T08:26:46.591Z,6.88
2023-04-09T08:29:14.867Z,7.32
2023-04-09T08:31:41.954Z,7.95
2023-04-09T08:34:08.800Z,7.30
2023-04-09T08:36:35.935Z,7.10
2023-04-09T08:39:03.621Z,7.50
2023-04-09T08:41:30.832Z,7.65
2023-04-09T08:43:59.451Z,7.85
2023-04-09T08:46:27.302Z,8.77
2023-04-09T08:48:54.788Z,7.85
2023-04-09T08:51:24.007Z,7.07
2023-04-09T08:54:03.695Z,7.15
2023-04-09T08:56:31.377Z,7.88
2023-04-09T08:58:58.633Z,8.05
2023-04-09T09:01:30.102Z,7.80
2023-04-09T09:04:05.622Z,8.02
2023-04-09T09:06:40.812Z,7.93
2023-04-09T09:09:15.798Z,8.02
2023-04-09T09:11:44.594Z,8.23
2023-04-09T09:14:13.292Z,9.10
2023-04-09T09:16:44.803Z,8.70
2023-04-09T09:19:26.979Z,9.98
2023-04-09T09:21:57.898Z,10.50
2023-04-09T09:24:24.801Z,10.45
2023-04-09T09:26:52.335Z,11.30
2023-04-09T09:29:20.089Z,11.68
2023-04-09T09:31:49.445Z,11.95
2023-04-09T09:34:17.824Z,12.88
2023-04-09T09:36:45.836Z,12.00
2023-04-09T09:39:13.796Z,13.00
2023-04-09T09:41:44.339Z,14.00
2023-04-09T09:44:12.432Z,12.45
2023-04-09T09:46:42.374Z,14.48
2023-04-09T09:49:09.761Z,13.30
2023-04-09T09:51:38.990Z,14.60
2023-04-09T09:54:08.502Z,14.10
2023-04-09T09:56:37.694Z,13.83
2023-04-09T09:59:10.959Z,14.32
2023-04-09T10:01:38.294Z,12.98
2023-04-09T10:04:07.166Z,13.15
2023-04-09T10:06:38.715Z,13.80
2023-04-09T10:09:06.826Z,11.73
2023-04-09T10:11:36.102Z,13.35
2023-04-09T10:14:03.532Z,11.40
2023-04-09T10:16:31.223Z,12.82
2023-04-09T10:18:59.836Z,11.13
2023-04-09T10:21:53.712Z,12.18
2023-04-09T10:24:20.830Z,11.57
2023-04-09T10:26:47.709Z,11.38
2023-04-09T10:29:16.603Z,14.70
2023-04-09T10:31:52.836Z,11.48
2023-04-09T10:34:23.386Z,11.52
2023-04-09T10:36:55.478Z,12.43
2023-04-09T10:39:28.262Z,12.75
2023-04-09T10:41:57.100Z,12.40
2023-04-09T10:44:28.679Z,12.45
2023-04-09T10:46:55.993Z,12.63
2023-04-09T10:49:24.998Z,13.00
2023-04-09T10:52:03.216Z,12.82
2023-04-09T10:54:33.435Z,12.60
2023-04-09T10:57:17.937Z,14.20
2023-04-09T10:59:45.830Z,14.45
2023-04-09T11:02:38.733Z,12.82
2023-04-09T11:05:19.102Z,13.07
2023-04-09T11:07:51.875Z,15.07
2023-04-09T11:10:20.566Z,14.02
2023-04-09T11:12:48.567Z,15.10
2023-04-09T11:15:19.860Z,15.77
2023-04-09T11:17:47.945Z,15.38
2023-04-09T11:20:22.433Z,15.77
2023-04-09T11:22:54.603Z,16.38
2023-04-09T11:25:30.069Z,16.02
2023-04-09T11:27:56.937Z,16.88
2023-04-09T11:30:23.817Z,16.10
2023-04-09T11:32:51.050Z,16.00
2023-04-09T11:35:20.481Z,16.48
2023-04-09T11:37:47.954Z,16.83
2023-04-09T11:40:26.334Z,16.88
2023-04-09T11:42:54.532Z,16.05
2023-04-09T11:45:27.850Z,14.90
2023-04-09T11:47:55.402Z,16.67
2023-04-09T11:50:22.710Z,15.07
2023-04-09T11:52:49.957Z,14.98
2023-04-09T11:55:27.590Z,14.93
2023-04-09T11:58:00.806Z,13.63
2023-04-09T12:00:28.860Z,15.07
2023-04-09T12:03:02.433Z,15.18
2023-04-09T12:05:31.657Z,16.83
2023-04-09T12:08:05.197Z,15.23
2023-04-09T12:10:34.293Z,14.98
2023-04-09T12:13:10.943Z,17.50
2023-04-09T12:15:43.438Z,16.25
2023-04-09T12:18:14.083Z,17.30
2023-04-09T12:20:44.106Z,18.10
2023-04-09T12:23:12.505Z,16.92
2023-04-09T12:25:41.413Z,17.90
2023-04-09T12:28:09.518Z,17.05
2023-04-09T12:30:36.574Z,17.83
2023-04-09T12:33:04.446Z,16.90
2023-04-09T12:35:32.054Z,16.77
2023-04-09T12:38:01.833Z,15.98
2023-04-09T12:40:29.050Z,16.67
2023-04-09T12:42:56.019Z,16.38
2023-04-09T12:45:23.100Z,16.23
2023-04-09T12:47:50.003Z,16.25
2023-04-09T12:50:17.096Z,17.00
2023-04-09T12:52:44.497Z,16.17
2023-04-09T12:55:12.133Z,19.92
2023-04-09T12:57:42.698Z,16.33
2023-04-09T13:00:09.943Z,17.33
2023-04-09T13:02:36.919Z,15.43
2023-04-09T13:05:06.627Z,14.82
2023-04-09T13:07:33.380Z,15.17
2023-04-09T13:10:00.310Z,15.75
2023-04-09T13:12:27.217Z,14.98
2023-04-09T13:14:55.034Z,19.08
2023-04-09T13:17:22.774Z,14.82
2023-04-09T13:19:50.631Z,15.45
2023-04-09T13:22:18.523Z,16.17
2023-04-09T13:24:45.307Z,17.02
2023-04-09T13:27:12.141Z,14.98
2023-04-09T13:29:38.962Z,14.45
2023-04-09T13:32:10.912Z,16.30
2023-04-09T13:34:39.583Z,16.42
2023-04-09T13:37:07.031Z,17.88
2023-04-09T13:39:33.900Z,13.02
2023-04-09T13:42:07.308Z,13.27
2023-04-09T13:44:42.208Z,13.50
2023-04-09T13:47:11.145Z,15.82
2023-04-09T13:49:38.090Z,15.27
2023-04-09T13:52:05.062Z,15.13
2023-04-09T13:54:32.511Z,15.80
2023-04-09T13:56:59.469Z,16.67
2023-04-09T13:59:26.216Z,17.25
2023-04-09T14:01:53.065Z,17.23
2023-04-09T14:04:20.119Z,15.85
2023-04-09T14:06:47.214Z,16.60
2023-04-09T14:09:14.959Z,15.48
2023-04-09T14:11:41.711Z,15.88
2023-04-09T14:14:08.471Z,15.02
2023-04-09T14:16:36.200Z,17.85
2023-04-09T14:19:03.061Z,17.42
2023-04-09T14:21:29.861Z,13.93
2023-04-09T14:23:56.569Z,16.35
2023-04-09T14:26:24.323Z,13.85
2023-04-09T14:28:51.719Z,11.80
2023-04-09T14:31:21.735Z,14.40
2023-04-09T14:33:49.016Z,12.30
2023-04-09T14:36:16.711Z,12.80
2023-04-09T14:38:43.568Z,12.70
2023-04-09T14:41:10.501Z,10.57
2023-04-09T14:43:37.286Z,12.55
2023-04-09T14:46:06.302Z,12.25
2023-04-09T14:48:33.075Z,12.93
2023-04-09T14:50:59.795Z,13.30
2023-04-09T14:53:26.702Z,14.80
2023-04-09T14:55:53.476Z,14.23
2023-04-09T14:58:20.772Z,15.07
2023-04-09T15:00:47.624Z,15.38
2023-04-09T15:03:14.669Z,15.70
2023-04-09T15:05:41.696Z,14.43
2023-04-09T15:08:08.392Z,13.25
2023-04-09T15:10:37.034Z,12.57
2023-04-09T15:13:03.789Z,11.93
2023-04-09T15:15:30.640Z,14.43
2023-04-09T15:17:57.419Z,12.00
2023-04-09T15:20:24.198Z,13.93
2023-04-09T15:22:51.184Z,12.60
2023-04-09T15:25:17.967Z,13.88
2023-04-09T15:27:46.463Z,12.57
2023-04-09T15:30:13.189Z,12.63
2023-04-09T15:32:40.099Z,12.65
2023-04-09T15:35:07.152Z,12.55
2023-04-09T15:37:33.985Z,14.02
2023-04-09T15:40:00.662Z,12.48
2023-04-09T15:42:27.541Z,12.73
2023-04-09T15:44:54.743Z,11.93
2023-04-09T15:47:21.485Z,11.43
2023-04-09T15:49:48.255Z,11.27
2023-04-09T15:52:15.302Z,11.55
2023-04-09T15:54:42.078Z,9.57
2023-04-09T15:57:08.802Z,11.27
2023-04-09T15:59:35.580Z,12.05
2023-04-09T16:02:04.436Z,10.30
2023-04-09T16:04:31.323Z,10.32
2023-04-09T16:06:58.212Z,9.45
2023-04-09T16:09:24.980Z,9.82
2023-04-09T16:11:51.731Z,9.05
2023-04-09T16:14:18.523Z,9.40
2023-04-09T16:16:49.702Z,9.30
2023-04-09T16:19:20.377Z,10.43
2023-04-09T16:21:47.389Z,9.70
2023-04-09T16:24:14.866Z,11.95
2023-04-09T16:26:45.974Z,11.00
2023-04-09T16:29:13.013Z,10.05
2023-04-09T16:31:43.054Z,9.50
2023-04-09T16:34:09.900Z,10.13
2023-04-09T16:36:37.175Z,9.95
2023-04-09T16:39:04.940Z,9.88
2023-04-09T16:41:31.906Z,10.32
2023-04-09T16:43:58.689Z,11.13
2023-04-09T16:46:25.624Z,9.98
2023-04-09T16:48:52.574Z,10.40
2023-04-09T16:51:19.615Z,10.65
2023-04-09T16:53:46.791Z,10.63
2023-04-09T16:56:15.577Z,12.00
2023-04-09T16:58:42.321Z,10.15
2023-04-09T17:01:09.117Z,10.55
2023-04-09T17:03:35.988Z,8.50
2023-04-09T17:06:04.395Z,11.25
2023-04-09T17:08:31.182Z,9.63
2023-04-09T17:11:02.361Z,9.27
2023-04-09T17:13:35.165Z,7.95
2023-04-09T17:16:03.233Z,10.07
2023-04-09T17:18:30.358Z,10.75
2023-04-09T17:20:57.142Z,10.02
2023-04-09T17:23:23.901Z,11.25
2023-04-09T17:25:50.636Z,11.65
2023-04-09T17:28:18.898Z,9.15
2023-04-09T17:30:45.963Z,8.80
2023-04-09T17:33:12.885Z,9.43
2023-04-09T17:35:39.707Z,9.90
2023-04-09T17:38:06.594Z,8.43
2023-04-09T17:40:33.318Z,10.18
2023-04-09T17:43:00.284Z,8.35
2023-04-09T17:45:27.163Z,9.13
2023-04-09T17:47:54.114Z,10.38
2023-04-09T17:50:21.300Z,10.48
2023-04-09T17:52:48.250Z,9.60
2023-04-09T17:55:15.406Z,10.10
2023-04-09T17:57:42.793Z,8.48
2023-04-09T18:00:11.066Z,10.60
2023-04-09T18:02:38.015Z,11.10
2023-04-09T18:05:05.425Z,11.55
2023-04-09T18:07:35.913Z,9.70
2023-04-09T18:10:04.232Z,10.13
2023-04-09T18:12:31.109Z,10.13
2023-04-09T18:14:57.884Z,10.82
2023-04-09T18:17:26.274Z,11.52
2023-04-09T18:19:58.288Z,11.75
2023-04-09T18:22:26.192Z,11.38
2023-04-09T18:24:53.146Z,11.25
2023-04-09T18:27:21.230Z,11.10
2023-04-09T18:29:49.335Z,10.95
2023-04-09T18:32:16.991Z,11.18
2023-04-09T18:34:45.065Z,9.63
2023-04-09T18:37:12.139Z,10.50
2023-04-09T18:39:38.862Z,10.40
2023-04-09T18:42:05.557Z,10.45
2023-04-09T18:44:36.139Z,9.00
2023-04-09T18:47:05.427Z,9.98
2023-04-09T18:49:35.802Z,10.63
2023-04-09T18:52:05.466Z,13.05
2023-04-09T18:54:36.501Z,13.07
2023-04-09T18:57:06.815Z,13.85
2023-04-09T19:02:05.472Z,12.23
2023-04-09T19:04:36.970Z,13.45
2023-04-09T19:07:04.093Z,13.45
2023-04-09T19:09:32.012Z,11.88
2023-04-09T19:11:58.851Z,13.60
2023-04-09T19:14:26.032Z,14.00
2023-04-09T19:16:53.006Z,10.73
2023-04-09T19:19:20.087Z,13.38
2023-04-09T19:21:46.858Z,14.20
2023-04-09T19:24:13.629Z,15.50
2023-04-09T19:26:40.370Z,13.25
2023-04-09T19:29:07.170Z,14.75
2023-04-09T19:31:33.947Z,13.65
2023-04-09T19:34:00.742Z,16.45
2023-04-09T19:36:28.383Z,14.40
2023-04-09T19:38:55.358Z,13.90
2023-04-09T19:41:22.332Z,14.52
2023-04-09T19:43:49.020Z,16.83
2023-04-09T19:46:15.813Z,12.65
2023-04-09T19:48:42.607Z,14.45
2023-04-09T19:51:18.610Z,12.32
2023-04-09T19:53:47.345Z,15.00
2023-04-09T19:56:14.190Z,12.50
2023-04-09T19:58:42.320Z,15.32
2023-04-09T20:01:09.777Z,13.65
2023-04-09T20:03:36.728Z,13.90
2023-04-09T20:06:09.263Z,15.10
2023-04-09T20:08:37.739Z,15.68
2023-04-09T20:11:04.746Z,15.90
2023-04-09T20:13:31.756Z,17.13
2023-04-09T20:15:58.679Z,13.52
2023-04-09T20:18:25.752Z,13.15
2023-04-09T20:20:53.430Z,14.57
2023-04-09T20:23:20.288Z,14.18
2023-04-09T20:25:47.076Z,18.67
2023-04-09T20:28:13.825Z,16.08
2023-04-09T20:30:40.553Z,14.10
2023-04-09T20:33:07.305Z,16.48
2023-04-09T20:35:36.121Z,17.25
2023-04-09T20:38:02.997Z,17.10
2023-04-09T20:40:30.757Z,15.52
2023-04-09T20:42:57.611Z,17.20
2023-04-09T20:45:24.277Z,18.05
2023-04-09T20:47:51.944Z,15.65
2023-04-09T20:50:19.543Z,14.48
2023-04-09T20:52:47.524Z,14.55
2023-04-09T20:55:14.564Z,15.55
2023-04-09T20:57:41.517Z,17.80
2023-04-09T21:00:08.922Z,18.88
2023-04-09T21:02:35.692Z,16.33
2023-04-09T21:05:11.714Z,17.88
2023-04-09T21:07:48.386Z,15.48
2023-04-09T21:10:15.525Z,16.60
2023-04-09T21:12:42.246Z,16.58
2023-04-09T21:15:09.429Z,18.95
2023-04-09T21:17:36.331Z,17.60
2023-04-09T21:20:03.328Z,17.70
2023-04-09T21:22:30.714Z,18.02
2023-04-09T21:24:57.435Z,19.48
2023-04-09T21:27:24.199Z,19.95
2023-04-09T21:29:50.933Z,19.08
2023-04-09T21:32:17.706Z,16.80
2023-04-09T21:34:44.555Z,16.50
2023-04-09T21:37:11.571Z,18.73
2023-04-09T21:39:38.500Z,17.60
2023-04-09T21:42:07.118Z,19.50
2023-04-09T21:44:34.035Z,18.50
2023-04-09T21:47:01.720Z,17.17
2023-04-09T21:49:28.503Z,16.23
2023-04-09T21:51:55.758Z,19.90
2023-04-09T21:54:22.551Z,18.42
2023-04-09T21:56:49.292Z,17.92
2023-04-09T21:59:16.022Z,16.55
2023-04-09T22:01:42.791Z,18.73
2023-04-09T22:04:09.743Z,17.85
2023-04-09T22:06:36.585Z,18.23
2023-04-09T22:09:03.635Z,20.20
2023-04-09T22:11:30.570Z,20.27
2023-04-09T22:13:57.732Z,16.77
2023-04-09T22:16:24.967Z,19.73
2023-04-09T22:18:52.530Z,16.02
2023-04-09T22:21:19.493Z,20.05
2023-04-09T22:23:46.223Z,18.15
2023-04-09T22:26:13.041Z,18.35
2023-04-09T22:28:39.844Z,17.45
2023-04-09T22:31:07.149Z,17.60
2023-04-09T22:33:33.972Z,19.50
2023-04-09T22:36:00.830Z,19.33
2023-04-09T22:38:27.715Z,19.20
2023-04-09T22:40:54.497Z,18.58
2023-04-09T22:43:21.359Z,20.05
2023-04-09T22:45:52.724Z,21.65
2023-04-09T22:48:20.906Z,20.13
2023-04-09T22:50:48.322Z,15.35
2023-04-09T22:53:18.770Z,18.67
2023-04-09T22:55:54.533Z,21.33
2023-04-09T22:58:21.412Z,18.75
2023-04-09T23:00:48.283Z,19.83
2023-04-09T23:03:15.918Z,18.27
2023-04-09T23:05:43.691Z,20.38
2023-04-09T23:08:10.459Z,23.73
2023-04-09T23:10:37.248Z,24.13
2023-04-09T23:13:04.000Z,21.05
2023-04-09T23:15:30.959Z,19.17
2023-04-09T23:17:57.737Z,17.60
2023-04-09T23:20:24.533Z,20.52
2023-04-09T23:22:51.269Z,19.70
2023-04-09T23:25:18.392Z,21.25
2023-04-09T23:27:46.570Z,20.00
2023-04-09T23:30:16.940Z,19.83
2023-04-09T23:32:45.370Z,18.58
2023-04-09T23:35:12.224Z,19.65
2023-04-09T23:37:40.322Z,18.92
2023-04-09T23:40:07.846Z,19.48
2023-04-09T23:42:35.468Z,19.88
2023-04-09T23:45:04.303Z,17.65
2023-04-09T23:47:35.701Z,21.52
2023-04-09T23:50:07.491Z,20.23
2023-04-09T23:52:36.053Z,20.48
2023-04-09T23:55:04.238Z,20.38
2023-04-09T23:57:31.335Z,19.33
2023-04-09T23:59:58.216Z,18.67
